createdAt,value
2023-02-13T00:00:40.617Z,38.9
2023-02-13T00:04:40.526Z,43.87
2023-02-13T00:08:40.685Z,37.5
2023-02-13T00:12:40.570Z,29
2023-02-13T00:16:40.596Z,35.93
2023-02-13T00:20:40.648Z,31.13
2023-02-13T00:24:40.619Z,40.67
2023-02-13T00:28:40.770Z,37.5
2023-02-13T00:32:41.004Z,40.13
2023-02-13T00:36:40.653Z,41.67
2023-02-13T00:40:40.614Z,44.1
2023-02-13T00:44:40.551Z,37.23
2023-02-13T00:48:40.489Z,37.2
2023-02-13T00:52:40.605Z,42.77
2023-02-13T00:56:40.439Z,45.83
2023-02-13T01:00:40.576Z,38.47
2023-02-13T01:04:40.997Z,48.67
2023-02-13T01:08:40.537Z,43.5
2023-02-13T01:12:41.203Z,41.9
2023-02-13T01:16:41.259Z,43.38
2023-02-13T01:20:40.765Z,46.55
2023-02-13T01:24:40.543Z,46.77
2023-02-13T01:28:40.625Z,49.1
2023-02-13T01:32:40.396Z,48.22
2023-02-13T01:36:40.469Z,53.77
2023-02-13T01:40:40.500Z,53.37
2023-02-13T01:44:40.596Z,55.88
2023-02-13T01:48:40.588Z,58.07
2023-02-13T01:52:40.555Z,64.87
2023-02-13T01:56:40.558Z,58.65
2023-02-13T02:00:40.518Z,76.35
2023-02-13T02:04:40.592Z,72.47
2023-02-13T02:08:40.578Z,73.87
2023-02-13T02:12:40.646Z,87.63
2023-02-13T02:16:40.441Z,80.53
2023-02-13T02:20:40.793Z,87.47
2023-02-13T02:24:40.677Z,85.7
2023-02-13T02:28:40.492Z,95.47
2023-02-13T02:32:40.528Z,94.97
2023-02-13T02:36:40.610Z,95.07
2023-02-13T02:40:40.638Z,82.1
2023-02-13T02:44:40.707Z,85.2
2023-02-13T02:48:40.839Z,71.6
2023-02-13T02:52:40.862Z,90
2023-02-13T02:56:40.534Z,86.87
2023-02-13T03:00:40.553Z,108.87
2023-02-13T03:04:40.519Z,83.57
2023-02-13T03:08:40.624Z,80.55
2023-02-13T03:12:40.223Z,90.1
2023-02-13T03:16:40.484Z,116.2
2023-02-13T03:20:40.513Z,110.63
2023-02-13T03:24:40.984Z,119.78
2023-02-13T03:28:40.833Z,96.15
2023-02-13T03:32:41.023Z,112.93
2023-02-13T03:36:40.525Z,109.57
2023-02-13T03:40:40.862Z,104.77
2023-02-13T03:44:40.684Z,106.73
2023-02-13T03:48:40.703Z,95.53
2023-02-13T03:52:40.487Z,94.7
2023-02-13T03:56:40.536Z,70.25
2023-02-13T04:00:40.405Z,59.47
2023-02-13T04:04:40.504Z,42.33
2023-02-13T04:08:41.146Z,54.43
2023-02-13T04:12:40.557Z,70
2023-02-13T04:16:40.662Z,50.7
2023-02-13T04:20:40.469Z,52.9
2023-02-13T04:24:40.681Z,36.33
2023-02-13T04:28:40.788Z,38.97
2023-02-13T04:32:40.392Z,36.6
2023-02-13T04:36:40.318Z,30.8
2023-02-13T04:40:40.513Z,31.2
2023-02-13T04:44:40.537Z,30.07
2023-02-13T04:48:40.631Z,27.13
2023-02-13T04:52:40.449Z,26.45
2023-02-13T04:56:40.498Z,26.57
2023-02-13T05:00:40.608Z,25.33
2023-02-13T05:04:40.505Z,23.6
2023-02-13T05:08:40.643Z,21
2023-02-13T05:12:39.842Z,18.67
2023-02-13T05:16:41.250Z,26.87
2023-02-13T05:20:40.593Z,17.97
2023-02-13T05:24:40.475Z,22.73
2023-02-13T05:28:40.737Z,29.83
2023-02-13T05:32:40.549Z,25.27
2023-02-13T05:36:40.716Z,24.87
2023-02-13T05:40:40.222Z,28.13
2023-02-13T05:44:41.057Z,22.77
2023-02-13T05:48:40.541Z,26.1
2023-02-13T05:52:40.638Z,22.9
2023-02-13T05:56:39.956Z,21
2023-02-13T06:00:41.251Z,32
2023-02-13T06:04:40.691Z,21.3
2023-02-13T06:08:40.604Z,30.63
2023-02-13T06:12:40.586Z,30.17
2023-02-13T06:16:40.377Z,22.17
2023-02-13T06:20:40.300Z,27.67
2023-02-13T06:24:40.616Z,27.43
2023-02-13T06:28:40.618Z,36
2023-02-13T06:32:40.616Z,22.5
2023-02-13T06:36:40.658Z,24.5
2023-02-13T06:40:40.436Z,27.87
2023-02-13T06:44:40.526Z,22.5
2023-02-13T06:48:40.922Z,23.13
2023-02-13T06:52:41.248Z,23.67
2023-02-13T06:56:40.984Z,20.73
2023-02-13T07:00:40.698Z,24.33
2023-02-13T07:04:40.554Z,28.23
2023-02-13T07:08:40.448Z,23.1
2023-02-13T07:12:40.953Z,22.67
2023-02-13T07:16:40.627Z,27.67
2023-02-13T07:20:40.601Z,27.07
2023-02-13T07:24:40.645Z,20.3
2023-02-13T07:28:40.623Z,26.67
2023-02-13T07:32:40.254Z,24.03
2023-02-13T07:36:40.713Z,21.37
2023-02-13T07:40:40.685Z,22.53
2023-02-13T07:44:40.544Z,27.2
2023-02-13T07:48:40.545Z,20.83
2023-02-13T07:52:40.531Z,21.73
2023-02-13T07:56:40.456Z,20.1
2023-02-13T08:00:40.693Z,20.23
2023-02-13T08:04:40.507Z,19.95
2023-02-13T08:08:40.495Z,17.07
2023-02-13T08:12:40.595Z,19.37
2023-02-13T08:16:40.429Z,21.95
2023-02-13T08:20:40.983Z,12.65
2023-02-13T08:24:39.998Z,17.67
2023-02-13T08:28:40.619Z,14.1
2023-02-13T08:32:53.401Z,14.57
2023-02-13T08:36:40.583Z,11.6
2023-02-13T08:40:41.286Z,12.25
2023-02-13T08:44:40.613Z,22.3
2023-02-13T08:48:40.690Z,17.92
2023-02-13T08:52:40.638Z,17.02
2023-02-13T08:56:40.549Z,22.27
2023-02-13T09:00:40.712Z,18.5
2023-02-13T09:04:40.583Z,27.5
2023-02-13T09:08:40.563Z,19.33
2023-02-13T09:12:40.548Z,23.23
2023-02-13T09:16:40.371Z,19.08
2023-02-13T09:20:40.498Z,14.68
2023-02-13T09:24:40.729Z,23.15
2023-02-13T09:28:40.669Z,14
2023-02-13T09:32:40.811Z,14.77
2023-02-13T09:36:40.610Z,16.05
2023-02-13T09:40:40.594Z,14.55
2023-02-13T09:44:40.495Z,21.4
2023-02-13T09:48:40.530Z,16.62
2023-02-13T09:52:40.708Z,19
2023-02-13T09:56:40.323Z,17.8
2023-02-13T10:00:40.556Z,17.73
2023-02-13T10:04:40.486Z,17.45
2023-02-13T10:08:40.542Z,12.93
2023-02-13T10:12:40.573Z,14.07
2023-02-13T10:16:40.356Z,14.87
2023-02-13T10:20:41.154Z,21.58
2023-02-13T10:24:40.452Z,13.27
2023-02-13T10:28:40.400Z,18.6
2023-02-13T10:32:40.624Z,15.32
2023-02-13T10:36:40.300Z,10.95
2023-02-13T10:40:40.785Z,12.5
2023-02-13T10:44:40.544Z,20.77
2023-02-13T10:48:40.772Z,9.88
2023-02-13T10:52:40.493Z,10.73
2023-02-13T10:56:40.738Z,16.15
2023-02-13T11:00:42.882Z,11.23
2023-02-13T11:04:40.599Z,8.57
2023-02-13T11:08:40.912Z,9.3
2023-02-13T11:12:40.679Z,8.85
2023-02-13T11:16:40.461Z,9.75
2023-02-13T11:20:40.996Z,11.07
2023-02-13T11:24:40.514Z,8.95
2023-02-13T11:28:40.996Z,6.65
2023-02-13T11:32:40.515Z,5.32
2023-02-13T11:36:40.226Z,5.72
2023-02-13T11:40:40.511Z,7.03
2023-02-13T11:44:40.542Z,7.53
2023-02-13T11:48:40.320Z,6.1
2023-02-13T11:52:40.698Z,3.95
2023-02-13T11:56:45.731Z,3.62
2023-02-13T12:00:40.960Z,6.68
2023-02-13T12:04:40.480Z,3.65
2023-02-13T12:08:40.379Z,11.8
2023-02-13T12:12:40.478Z,7.55
2023-02-13T12:16:41.119Z,6.85
2023-02-13T12:20:40.584Z,5.4
2023-02-13T12:24:40.556Z,5.85
2023-02-13T12:28:40.648Z,5.18
2023-02-13T12:32:40.551Z,11.07
2023-02-13T12:36:40.276Z,3.4
2023-02-13T12:40:40.772Z,5.2
2023-02-13T12:44:40.659Z,7.85
2023-02-13T12:48:40.491Z,5.22
2023-02-13T12:52:40.525Z,5.18
2023-02-13T12:56:40.277Z,5.68
2023-02-13T13:00:40.237Z,2.75
2023-02-13T13:04:40.549Z,10.95
2023-02-13T13:08:40.540Z,1.95
2023-02-13T13:12:40.632Z,4.53
2023-02-13T13:16:40.376Z,2.6
2023-02-13T13:20:39.412Z,2.7
2023-02-13T13:24:40.628Z,2.05
2023-02-13T13:28:40.953Z,3.55
2023-02-13T13:32:41.362Z,4.53
2023-02-13T13:36:40.314Z,5.25
2023-02-13T13:40:40.305Z,6.65
2023-02-13T13:44:40.601Z,3.47
2023-02-13T13:48:40.481Z,3.3
2023-02-13T13:52:40.594Z,3.4
2023-02-13T13:56:40.364Z,7.47
2023-02-13T14:00:40.649Z,4.78
2023-02-13T14:04:40.593Z,6.12
2023-02-13T14:08:40.740Z,5.72
2023-02-13T14:12:40.601Z,2.8
2023-02-13T14:16:40.445Z,4.22
2023-02-13T14:20:40.604Z,4.1
2023-02-13T14:24:42.542Z,4.35
2023-02-13T14:28:40.868Z,5.22
2023-02-13T14:32:40.363Z,7.18
2023-02-13T14:36:39.652Z,4.22
2023-02-13T14:40:40.912Z,2.95
2023-02-13T14:44:40.544Z,4.15
2023-02-13T14:48:40.555Z,3.87
2023-02-13T14:52:40.639Z,7.32
2023-02-13T14:56:40.356Z,3
2023-02-13T15:00:40.810Z,4.5
2023-02-13T15:04:40.720Z,5.53
2023-02-13T15:08:40.924Z,3.5
2023-02-13T15:12:40.609Z,8.55
2023-02-13T15:16:40.035Z,4.05
2023-02-13T15:20:40.718Z,5.5
2023-02-13T15:24:41.238Z,4.22
2023-02-13T15:28:40.684Z,4.37
2023-02-13T15:32:40.641Z,7.32
2023-02-13T15:36:40.691Z,4.43
2023-02-13T15:40:40.468Z,3.9
2023-02-13T15:44:40.498Z,7.87
2023-02-13T15:48:40.500Z,5.9
2023-02-13T15:52:40.599Z,4.57
2023-02-13T15:56:40.381Z,4.07
2023-02-13T16:00:40.655Z,7.15
2023-02-13T16:04:40.534Z,5.65
2023-02-13T16:08:40.545Z,3.17
2023-02-13T16:12:40.545Z,5.07
2023-02-13T16:16:40.355Z,5.97
2023-02-13T16:20:40.559Z,3.35
2023-02-13T16:24:40.855Z,6.65
2023-02-13T16:28:39.641Z,4.95
2023-02-13T16:32:40.757Z,6.28
2023-02-13T16:36:39.779Z,7
2023-02-13T16:40:40.634Z,5.35
2023-02-13T16:44:40.599Z,12.43
2023-02-13T16:48:40.461Z,5.5
2023-02-13T16:52:40.906Z,7.6
2023-02-13T16:56:40.462Z,10
2023-02-13T17:00:40.691Z,9.6
2023-02-13T17:04:40.513Z,12.45
2023-02-13T17:08:40.476Z,7.87
2023-02-13T17:12:40.504Z,10.6
2023-02-13T17:16:40.397Z,9.1
2023-02-13T17:20:40.743Z,10.9
2023-02-13T17:24:40.535Z,11.65
2023-02-13T17:28:40.528Z,10.57
2023-02-13T17:32:40.592Z,8.9
2023-02-13T17:36:40.481Z,9.13
2023-02-13T17:40:41.382Z,11.32
2023-02-13T17:44:40.796Z,9.32
2023-02-13T17:48:40.901Z,11.82
2023-02-13T17:52:40.388Z,11.32
2023-02-13T17:56:40.643Z,14.73
2023-02-13T18:00:40.623Z,14.63
2023-02-13T18:04:40.706Z,10.7
2023-02-13T18:08:40.786Z,15.05
2023-02-13T18:12:40.592Z,11.45
2023-02-13T18:16:40.389Z,10.68
2023-02-13T18:20:40.442Z,15.9
2023-02-13T18:24:40.527Z,14.63
2023-02-13T18:28:40.949Z,12.17
2023-02-13T18:32:40.531Z,11.93
2023-02-13T18:36:40.673Z,9.68
2023-02-13T18:40:40.694Z,20.3
2023-02-13T18:44:40.539Z,7.78
2023-02-13T18:48:40.605Z,10.97
2023-02-13T18:52:41.240Z,9.32
2023-02-13T18:56:40.478Z,10.9
2023-02-13T19:00:40.484Z,9.37
2023-02-13T19:04:40.554Z,14.8
2023-02-13T19:08:40.554Z,12.33
2023-02-13T19:12:40.560Z,11.45
2023-02-13T19:16:40.596Z,10.83
2023-02-13T19:20:40.987Z,8.1
2023-02-13T19:24:40.592Z,9.73
2023-02-13T19:28:40.443Z,13.88
2023-02-13T19:32:40.654Z,11.87
2023-02-13T19:36:40.243Z,11.4
2023-02-13T19:40:41.206Z,13.15
2023-02-13T19:44:41.120Z,12.88
2023-02-13T19:48:40.554Z,14.75
2023-02-13T19:52:40.802Z,14.45
2023-02-13T19:56:40.343Z,14.3
2023-02-13T20:00:40.702Z,13.32
2023-02-13T20:04:40.554Z,18.77
2023-02-13T20:08:42.873Z,15.9
2023-02-13T20:12:40.450Z,14.13
2023-02-13T20:16:40.566Z,12.33
2023-02-13T20:20:40.636Z,13.1
2023-02-13T20:24:40.673Z,15.73
2023-02-13T20:28:40.938Z,12.07
2023-02-13T20:32:40.402Z,15
2023-02-13T20:36:40.360Z,16.48
2023-02-13T20:40:40.541Z,13.38
2023-02-13T20:44:40.229Z,15.77
2023-02-13T20:48:39.964Z,15.25
2023-02-13T20:52:39.621Z,14.55
2023-02-13T20:56:40.485Z,19.23
2023-02-13T21:00:40.640Z,15.3
2023-02-13T21:04:40.702Z,18.1
2023-02-13T21:08:40.516Z,15
2023-02-13T21:12:40.634Z,16.75
2023-02-13T21:16:40.447Z,15.88
2023-02-13T21:20:40.639Z,20.03
2023-02-13T21:24:41.188Z,18.63
2023-02-13T21:28:40.500Z,19.6
2023-02-13T21:32:40.754Z,19.03
2023-02-13T21:36:40.715Z,19.77
2023-02-13T21:40:40.606Z,18.3
2023-02-13T21:44:40.557Z,20.8
2023-02-13T21:48:40.624Z,18.7
2023-02-13T21:52:40.555Z,18.13
2023-02-13T21:56:40.621Z,17.9
2023-02-13T22:00:40.530Z,16.63
2023-02-13T22:04:40.812Z,18.58
2023-02-13T22:08:40.864Z,19.3
2023-02-13T22:12:40.554Z,21.98
2023-02-13T22:16:40.621Z,20.77
2023-02-13T22:20:40.673Z,20.77
2023-02-13T22:24:40.381Z,18.85
2023-02-13T22:28:40.497Z,14.77
2023-02-13T22:32:40.832Z,17
2023-02-13T22:36:40.587Z,19.12
2023-02-13T22:40:40.899Z,18.23
2023-02-13T22:44:40.544Z,16.35
2023-02-13T22:48:41.349Z,17.83
2023-02-13T22:52:40.566Z,20.33
2023-02-13T22:56:40.557Z,19
2023-02-13T23:00:39.836Z,19.57
2023-02-13T23:04:39.608Z,21.63
2023-02-13T23:08:40.545Z,24.17
2023-02-13T23:12:40.728Z,20.7
2023-02-13T23:16:40.654Z,18.7
2023-02-13T23:20:40.538Z,31.4
2023-02-13T23:24:40.811Z,24.67
2023-02-13T23:28:40.561Z,26.02
2023-02-13T23:32:40.766Z,30.7
2023-02-13T23:36:41.225Z,30.23
2023-02-13T23:40:40.537Z,26.53
2023-02-13T23:44:40.857Z,21.42
2023-02-13T23:48:40.388Z,25.27
2023-02-13T23:52:40.340Z,23.15
2023-02-13T23:56:40.570Z,27.35
